KRMG/RMG METAR and TAF weather

Enter ICAO airport designator
Station Type Date Time Source
KRMG METAR 2020/01/26 18:53 UTC NOAA

KRMG 261853Z AUTO 00000KT 10SM BKN070 OVC110 08/01 A3007 RMK AO2 SLP182 T00830006


Station Type Date Time Source
KRMG Decoded METAR 2020/01/26 18:53 UTC NOAA

ROME R. B. RUSSELL AIRPORT, GA, United States (KRMG) 34-21N 085-10W 193M
Jan 26, 2020 - 01:53 PM EST / 2020.01.26 1853 UTC
Wind: Calm:0
Visibility: 10 mile(s):0
Sky conditions: overcast
Temperature: 46.9 F (8.3 C)
Dew Point: 33.1 F (0.6 C)
Relative Humidity: 58%
Pressure (altimeter): 30.07 in. Hg (1018 hPa)
ob: KRMG 261853Z AUTO 00000KT 10SM BKN070 OVC110 08/01 A3007 RMK AO2 SLP182 T00830006
cycle: 19

Station Type Date Time Source
KRMG TAF UTC NOAA

Error!

Example: see airport list